sensor_id;sensor_type;location;lat;lon;timestamp;temperature;humidity
71754;DHT22;59593;51.716;7.016;2022-12-18T00:00:44;-6.40;99.90
71754;DHT22;59593;51.716;7.016;2022-12-18T00:03:10;-6.50;99.90
71754;DHT22;59593;51.716;7.016;2022-12-18T00:05:36;-6.40;99.90
71754;DHT22;59593;51.716;7.016;2022-12-18T00:08:02;-6.50;99.90
71754;DHT22;59593;51.716;7.016;2022-12-18T00:10:28;-6.60;99.90
71754;DHT22;59593;51.716;7.016;2022-12-18T00:12:54;-6.60;99.90
71754;DHT22;59593;51.716;7.016;2022-12-18T00:15:19;-6.60;99.90
71754;DHT22;59593;51.716;7.016;2022-12-18T00:17:45;-6.70;99.90
71754;DHT22;59593;51.716;7.016;2022-12-18T00:20:11;-6.70;99.90
71754;DHT22;59593;51.716;7.016;2022-12-18T00:22:37;-6.70;99.90
71754;DHT22;59593;51.716;7.016;2022-12-18T00:25:02;-6.60;99.90
71754;DHT22;59593;51.716;7.016;2022-12-18T00:27:28;-6.60;99.90
71754;DHT22;59593;51.716;7.016;2022-12-18T00:29:53;-6.60;99.90
71754;DHT22;59593;51.716;7.016;2022-12-18T00:32:19;-6.60;99.90
71754;DHT22;59593;51.716;7.016;2022-12-18T00:34:45;-6.60;99.90
71754;DHT22;59593;51.716;7.016;2022-12-18T00:37:10;-6.70;99.90
71754;DHT22;59593;51.716;7.016;2022-12-18T00:39:36;-6.60;99.90
71754;DHT22;59593;51.716;7.016;2022-12-18T00:42:01;-6.70;99.90
71754;DHT22;59593;51.716;7.016;2022-12-18T00:44:45;-6.70;99.90
71754;DHT22;59593;51.716;7.016;2022-12-18T00:47:11;-6.80;99.90
71754;DHT22;59593;51.716;7.016;2022-12-18T00:49:36;-6.80;99.90
71754;DHT22;59593;51.716;7.016;2022-12-18T00:52:02;-6.90;99.90
71754;DHT22;59593;51.716;7.016;2022-12-18T00:54:27;-6.80;99.90
71754;DHT22;59593;51.716;7.016;2022-12-18T00:56:53;-6.80;99.90
71754;DHT22;59593;51.716;7.016;2022-12-18T00:59:20;-6.80;99.90
71754;DHT22;59593;51.716;7.016;2022-12-18T01:01:46;-6.70;99.90
71754;DHT22;59593;51.716;7.016;2022-12-18T01:04:11;-6.70;99.90
71754;DHT22;59593;51.716;7.016;2022-12-18T01:06:37;-6.70;99.90
71754;DHT22;59593;51.716;7.016;2022-12-18T01:09:03;-6.70;99.90
71754;DHT22;59593;51.716;7.016;2022-12-18T01:11:28;-6.70;99.90
71754;DHT22;59593;51.716;7.016;2022-12-18T01:13:54;-6.80;99.90
71754;DHT22;59593;51.716;7.016;2022-12-18T01:16:20;-6.80;99.90
71754;DHT22;59593;51.716;7.016;2022-12-18T01:18:46;-6.90;99.90
71754;DHT22;59593;51.716;7.016;2022-12-18T01:21:14;-6.90;99.90
71754;DHT22;59593;51.716;7.016;2022-12-18T01:23:41;-6.90;99.90
71754;DHT22;59593;51.716;7.016;2022-12-18T01:26:12;-6.90;99.90
71754;DHT22;59593;51.716;7.016;2022-12-18T01:28:39;-6.90;99.90
71754;DHT22;59593;51.716;7.016;2022-12-18T01:31:23;-6.90;99.90
71754;DHT22;59593;51.716;7.016;2022-12-18T01:33:50;-6.80;99.90
71754;DHT22;59593;51.716;7.016;2022-12-18T01:36:36;-6.80;99.90
71754;DHT22;59593;51.716;7.016;2022-12-18T01:39:05;-6.80;99.90
71754;DHT22;59593;51.716;7.016;2022-12-18T01:41:33;-6.80;99.90
71754;DHT22;59593;51.716;7.016;2022-12-18T01:44:56;-6.80;99.90
71754;DHT22;59593;51.716;7.016;2022-12-18T01:52:35;-6.70;99.90
71754;DHT22;59593;51.716;7.016;2022-12-18T01:55:03;-6.70;99.90
71754;DHT22;59593;51.716;7.016;2022-12-18T01:57:29;-6.70;99.90
71754;DHT22;59593;51.716;7.016;2022-12-18T02:00:00;-6.70;99.90
71754;DHT22;59593;51.716;7.016;2022-12-18T02:02:27;-6.70;99.90
71754;DHT22;59593;51.716;7.016;2022-12-18T02:04:54;-6.70;99.90
71754;DHT22;59593;51.716;7.016;2022-12-18T02:10:29;-6.70;99.90
71754;DHT22;59593;51.716;7.016;2022-12-18T02:15:40;-6.60;99.90
71754;DHT22;59593;51.716;7.016;2022-12-18T02:18:22;-6.70;99.90
71754;DHT22;59593;51.716;7.016;2022-12-18T02:26:32;-6.80;99.90
71754;DHT22;59593;51.716;7.016;2022-12-18T02:29:03;-6.80;99.90
71754;DHT22;59593;51.716;7.016;2022-12-18T02:31:42;-6.80;99.90
71754;DHT22;59593;51.716;7.016;2022-12-18T02:34:09;-6.70;99.90
71754;DHT22;59593;51.716;7.016;2022-12-18T02:36:38;-6.70;99.90
71754;DHT22;59593;51.716;7.016;2022-12-18T02:39:07;-6.80;99.90
71754;DHT22;59593;51.716;7.016;2022-12-18T02:41:34;-6.80;99.90
71754;DHT22;59593;51.716;7.016;2022-12-18T02:44:08;-6.80;99.90
71754;DHT22;59593;51.716;7.016;2022-12-18T02:46:43;-6.90;99.90
71754;DHT22;59593;51.716;7.016;2022-12-18T02:49:34;-6.80;99.90
71754;DHT22;59593;51.716;7.016;2022-12-18T02:52:13;-6.80;99.90
71754;DHT22;59593;51.716;7.016;2022-12-18T02:55:12;-6.90;99.90
71754;DHT22;59593;51.716;7.016;2022-12-18T03:00:30;-6.80;99.90
71754;DHT22;59593;51.716;7.016;2022-12-18T03:03:22;-6.80;99.90
71754;DHT22;59593;51.716;7.016;2022-12-18T03:06:04;-6.90;99.90
71754;DHT22;59593;51.716;7.016;2022-12-18T03:08:38;-6.90;99.90
71754;DHT22;59593;51.716;7.016;2022-12-18T03:11:09;-7.00;99.90
71754;DHT22;59593;51.716;7.016;2022-12-18T03:13:43;-7.00;99.90
71754;DHT22;59593;51.716;7.016;2022-12-18T03:16:14;-7.10;99.90
71754;DHT22;59593;51.716;7.016;2022-12-18T03:18:48;-7.00;99.90
71754;DHT22;59593;51.716;7.016;2022-12-18T03:21:17;-7.00;99.90
71754;DHT22;59593;51.716;7.016;2022-12-18T03:23:48;-6.90;99.90
71754;DHT22;59593;51.716;7.016;2022-12-18T03:26:17;-6.80;99.90
71754;DHT22;59593;51.716;7.016;2022-12-18T03:28:50;-6.70;99.90
71754;DHT22;59593;51.716;7.016;2022-12-18T03:31:17;-6.70;99.90
71754;DHT22;59593;51.716;7.016;2022-12-18T03:33:50;-6.70;99.90
71754;DHT22;59593;51.716;7.016;2022-12-18T03:36:17;-6.70;99.90
71754;DHT22;59593;51.716;7.016;2022-12-18T03:38:42;-6.60;99.90
71754;DHT22;59593;51.716;7.016;2022-12-18T03:41:16;-6.60;99.90
71754;DHT22;59593;51.716;7.016;2022-12-18T03:46:35;-6.80;99.90
71754;DHT22;59593;51.716;7.016;2022-12-18T03:49:09;-6.80;99.90
71754;DHT22;59593;51.716;7.016;2022-12-18T03:51:45;-6.70;99.90
71754;DHT22;59593;51.716;7.016;2022-12-18T03:54:14;-6.80;99.90
71754;DHT22;59593;51.716;7.016;2022-12-18T03:56:44;-6.80;99.90
71754;DHT22;59593;51.716;7.016;2022-12-18T03:59:12;-6.80;99.90
71754;DHT22;59593;51.716;7.016;2022-12-18T04:01:45;-6.80;99.90
71754;DHT22;59593;51.716;7.016;2022-12-18T04:04:13;-6.90;99.90
71754;DHT22;59593;51.716;7.016;2022-12-18T04:06:40;-6.90;99.90
71754;DHT22;59593;51.716;7.016;2022-12-18T04:09:07;-6.90;99.90
71754;DHT22;59593;51.716;7.016;2022-12-18T04:11:33;-6.90;99.90
71754;DHT22;59593;51.716;7.016;2022-12-18T04:13:59;-7.00;99.90
71754;DHT22;59593;51.716;7.016;2022-12-18T04:16:28;-7.00;99.90
71754;DHT22;59593;51.716;7.016;2022-12-18T04:18:54;-7.00;99.90
71754;DHT22;59593;51.716;7.016;2022-12-18T04:21:20;-7.00;99.90
71754;DHT22;59593;51.716;7.016;2022-12-18T04:23:45;-7.00;99.90
71754;DHT22;59593;51.716;7.016;2022-12-18T04:26:11;-7.00;99.90
71754;DHT22;59593;51.716;7.016;2022-12-18T04:28:37;-7.10;99.90
71754;DHT22;59593;51.716;7.016;2022-12-18T04:31:03;-7.10;99.90
71754;DHT22;59593;51.716;7.016;2022-12-18T04:33:28;-7.00;99.90
71754;DHT22;59593;51.716;7.016;2022-12-18T04:35:54;-6.90;99.90
71754;DHT22;59593;51.716;7.016;2022-12-18T04:38:19;-6.90;99.90
71754;DHT22;59593;51.716;7.016;2022-12-18T04:40:45;-6.80;99.90
71754;DHT22;59593;51.716;7.016;2022-12-18T04:43:11;-6.70;99.90
71754;DHT22;59593;51.716;7.016;2022-12-18T04:45:37;-6.70;99.90
71754;DHT22;59593;51.716;7.016;2022-12-18T04:48:03;-6.60;99.90
71754;DHT22;59593;51.716;7.016;2022-12-18T04:50:29;-6.60;99.90
71754;DHT22;59593;51.716;7.016;2022-12-18T04:52:55;-6.60;99.90
71754;DHT22;59593;51.716;7.016;2022-12-18T04:55:21;-6.50;99.90
71754;DHT22;59593;51.716;7.016;2022-12-18T04:57:46;-6.50;99.90
71754;DHT22;59593;51.716;7.016;2022-12-18T05:00:12;-6.50;99.90
71754;DHT22;59593;51.716;7.016;2022-12-18T05:02:38;-6.50;99.90
71754;DHT22;59593;51.716;7.016;2022-12-18T05:05:04;-6.40;99.90
71754;DHT22;59593;51.716;7.016;2022-12-18T05:07:30;-6.40;99.90
71754;DHT22;59593;51.716;7.016;2022-12-18T05:09:55;-6.40;99.90
71754;DHT22;59593;51.716;7.016;2022-12-18T05:12:24;-6.40;99.90
71754;DHT22;59593;51.716;7.016;2022-12-18T05:14:50;-6.40;99.90
71754;DHT22;59593;51.716;7.016;2022-12-18T05:17:16;-6.30;99.90
71754;DHT22;59593;51.716;7.016;2022-12-18T05:19:41;-6.40;99.90
71754;DHT22;59593;51.716;7.016;2022-12-18T05:22:07;-6.40;99.90
71754;DHT22;59593;51.716;7.016;2022-12-18T05:24:33;-6.40;99.90
71754;DHT22;59593;51.716;7.016;2022-12-18T05:26:58;-6.40;99.90
71754;DHT22;59593;51.716;7.016;2022-12-18T05:29:24;-6.50;99.90
71754;DHT22;59593;51.716;7.016;2022-12-18T05:31:50;-6.50;99.90
71754;DHT22;59593;51.716;7.016;2022-12-18T05:34:15;-6.60;99.90
71754;DHT22;59593;51.716;7.016;2022-12-18T05:36:41;-6.60;99.90
71754;DHT22;59593;51.716;7.016;2022-12-18T05:39:07;-6.60;99.90
71754;DHT22;59593;51.716;7.016;2022-12-18T05:41:32;-6.70;99.90
71754;DHT22;59593;51.716;7.016;2022-12-18T05:43:59;-6.60;99.90
71754;DHT22;59593;51.716;7.016;2022-12-18T05:46:25;-6.70;99.90
71754;DHT22;59593;51.716;7.016;2022-12-18T05:48:51;-6.80;99.90
71754;DHT22;59593;51.716;7.016;2022-12-18T05:51:19;-6.90;99.90
71754;DHT22;59593;51.716;7.016;2022-12-18T05:53:45;-6.90;99.90
71754;DHT22;59593;51.716;7.016;2022-12-18T05:56:17;-7.00;99.90
71754;DHT22;59593;51.716;7.016;2022-12-18T05:58:43;-7.00;99.90
71754;DHT22;59593;51.716;7.016;2022-12-18T06:03:36;-7.00;99.90
71754;DHT22;59593;51.716;7.016;2022-12-18T06:06:02;-7.00;99.90
71754;DHT22;59593;51.716;7.016;2022-12-18T06:08:28;-6.90;99.90
71754;DHT22;59593;51.716;7.016;2022-12-18T06:10:54;-7.00;99.90
71754;DHT22;59593;51.716;7.016;2022-12-18T06:13:20;-6.90;99.90
71754;DHT22;59593;51.716;7.016;2022-12-18T06:15:46;-6.90;99.90
71754;DHT22;59593;51.716;7.016;2022-12-18T06:18:12;-6.90;99.90
71754;DHT22;59593;51.716;7.016;2022-12-18T06:20:37;-6.90;99.90
71754;DHT22;59593;51.716;7.016;2022-12-18T06:23:05;-7.00;99.90
71754;DHT22;59593;51.716;7.016;2022-12-18T06:25:31;-7.00;99.90
71754;DHT22;59593;51.716;7.016;2022-12-18T06:27:56;-7.00;99.90
71754;DHT22;59593;51.716;7.016;2022-12-18T06:30:22;-7.00;99.90
71754;DHT22;59593;51.716;7.016;2022-12-18T06:32:49;-7.20;99.90
71754;DHT22;59593;51.716;7.016;2022-12-18T06:35:14;-7.20;99.90
71754;DHT22;59593;51.716;7.016;2022-12-18T06:37:40;-7.10;99.90
71754;DHT22;59593;51.716;7.016;2022-12-18T06:40:06;-7.10;99.90
71754;DHT22;59593;51.716;7.016;2022-12-18T06:42:32;-7.10;99.90
71754;DHT22;59593;51.716;7.016;2022-12-18T06:44:57;-7.20;99.90
71754;DHT22;59593;51.716;7.016;2022-12-18T06:47:23;-7.20;99.90
71754;DHT22;59593;51.716;7.016;2022-12-18T06:49:49;-7.20;99.90
71754;DHT22;59593;51.716;7.016;2022-12-18T06:52:14;-7.20;99.90
71754;DHT22;59593;51.716;7.016;2022-12-18T06:54:40;-7.30;99.90
71754;DHT22;59593;51.716;7.016;2022-12-18T06:57:05;-7.20;99.90
71754;DHT22;59593;51.716;7.016;2022-12-18T06:59:31;-7.20;99.90
71754;DHT22;59593;51.716;7.016;2022-12-18T07:01:57;-7.30;99.90
71754;DHT22;59593;51.716;7.016;2022-12-18T07:04:28;-7.30;99.90
71754;DHT22;59593;51.716;7.016;2022-12-18T07:06:53;-7.30;99.90
71754;DHT22;59593;51.716;7.016;2022-12-18T07:09:19;-7.20;99.90
71754;DHT22;59593;51.716;7.016;2022-12-18T07:11:44;-7.20;99.90
71754;DHT22;59593;51.716;7.016;2022-12-18T07:14:10;-7.20;99.90
71754;DHT22;59593;51.716;7.016;2022-12-18T07:16:35;-7.20;99.90
71754;DHT22;59593;51.716;7.016;2022-12-18T07:19:01;-7.20;99.90
71754;DHT22;59593;51.716;7.016;2022-12-18T07:21:27;-7.20;99.90
71754;DHT22;59593;51.716;7.016;2022-12-18T07:23:52;-7.10;99.90
71754;DHT22;59593;51.716;7.016;2022-12-18T07:26:20;-7.10;99.90
71754;DHT22;59593;51.716;7.016;2022-12-18T07:28:46;-7.00;99.90
71754;DHT22;59593;51.716;7.016;2022-12-18T07:31:20;-6.90;99.90
71754;DHT22;59593;51.716;7.016;2022-12-18T07:33:47;-6.90;99.90
71754;DHT22;59593;51.716;7.016;2022-12-18T07:36:13;-6.90;99.90
71754;DHT22;59593;51.716;7.016;2022-12-18T07:38:39;-6.90;99.90
71754;DHT22;59593;51.716;7.016;2022-12-18T07:41:12;-6.90;99.90
71754;DHT22;59593;51.716;7.016;2022-12-18T07:43:39;-6.90;99.90
71754;DHT22;59593;51.716;7.016;2022-12-18T07:46:05;-6.80;99.90
71754;DHT22;59593;51.716;7.016;2022-12-18T07:48:31;-6.80;99.90
71754;DHT22;59593;51.716;7.016;2022-12-18T07:51:05;-6.70;99.90
71754;DHT22;59593;51.716;7.016;2022-12-18T07:53:32;-6.60;99.90
71754;DHT22;59593;51.716;7.016;2022-12-18T07:55:59;-6.60;99.90
71754;DHT22;59593;51.716;7.016;2022-12-18T07:58:25;-6.60;99.90
71754;DHT22;59593;51.716;7.016;2022-12-18T08:00:51;-6.50;99.90
71754;DHT22;59593;51.716;7.016;2022-12-18T08:03:18;-6.40;99.90
71754;DHT22;59593;51.716;7.016;2022-12-18T08:05:43;-6.30;99.90
71754;DHT22;59593;51.716;7.016;2022-12-18T08:08:09;-6.30;99.90
71754;DHT22;59593;51.716;7.016;2022-12-18T08:10:35;-6.30;99.90
71754;DHT22;59593;51.716;7.016;2022-12-18T08:13:00;-6.20;99.90
71754;DHT22;59593;51.716;7.016;2022-12-18T08:15:26;-6.10;99.90
71754;DHT22;59593;51.716;7.016;2022-12-18T08:17:51;-6.10;99.90
71754;DHT22;59593;51.716;7.016;2022-12-18T08:20:17;-6.00;99.90
71754;DHT22;59593;51.716;7.016;2022-12-18T08:22:43;-5.90;99.90
71754;DHT22;59593;51.716;7.016;2022-12-18T08:25:10;-6.00;99.90
71754;DHT22;59593;51.716;7.016;2022-12-18T08:27:36;-5.90;99.90
71754;DHT22;59593;51.716;7.016;2022-12-18T08:30:02;-5.90;99.90
71754;DHT22;59593;51.716;7.016;2022-12-18T08:32:28;-5.80;99.90
71754;DHT22;59593;51.716;7.016;2022-12-18T08:34:54;-5.70;99.90
71754;DHT22;59593;51.716;7.016;2022-12-18T08:37:19;-5.60;99.90
71754;DHT22;59593;51.716;7.016;2022-12-18T08:39:45;-5.50;99.90
71754;DHT22;59593;51.716;7.016;2022-12-18T08:42:11;-5.50;99.90
71754;DHT22;59593;51.716;7.016;2022-12-18T08:44:55;-5.40;99.90
71754;DHT22;59593;51.716;7.016;2022-12-18T08:47:20;-5.20;99.90
71754;DHT22;59593;51.716;7.016;2022-12-18T08:49:46;-5.10;99.90
71754;DHT22;59593;51.716;7.016;2022-12-18T08:52:11;-5.10;99.90
71754;DHT22;59593;51.716;7.016;2022-12-18T08:54:37;-5.10;99.90
71754;DHT22;59593;51.716;7.016;2022-12-18T08:57:03;-5.00;99.90
71754;DHT22;59593;51.716;7.016;2022-12-18T08:59:28;-4.90;99.90
71754;DHT22;59593;51.716;7.016;2022-12-18T09:01:55;-4.90;99.90
71754;DHT22;59593;51.716;7.016;2022-12-18T09:04:21;-4.70;99.90
71754;DHT22;59593;51.716;7.016;2022-12-18T09:06:47;-4.60;99.90
71754;DHT22;59593;51.716;7.016;2022-12-18T09:09:12;-4.40;99.90
71754;DHT22;59593;51.716;7.016;2022-12-18T09:11:38;-4.30;99.90
71754;DHT22;59593;51.716;7.016;2022-12-18T09:14:04;-4.20;99.90
71754;DHT22;59593;51.716;7.016;2022-12-18T09:16:30;-4.10;99.90
71754;DHT22;59593;51.716;7.016;2022-12-18T09:18:57;-4.10;99.90
71754;DHT22;59593;51.716;7.016;2022-12-18T09:21:28;-4.00;99.90
71754;DHT22;59593;51.716;7.016;2022-12-18T09:23:55;-3.90;99.90
71754;DHT22;59593;51.716;7.016;2022-12-18T09:26:24;-3.80;99.90
71754;DHT22;59593;51.716;7.016;2022-12-18T09:28:51;-3.70;99.90
71754;DHT22;59593;51.716;7.016;2022-12-18T09:31:18;-3.60;99.90
71754;DHT22;59593;51.716;7.016;2022-12-18T09:33:44;-3.60;99.90
71754;DHT22;59593;51.716;7.016;2022-12-18T09:36:15;-3.60;99.90
71754;DHT22;59593;51.716;7.016;2022-12-18T09:38:41;-3.50;99.90
71754;DHT22;59593;51.716;7.016;2022-12-18T09:43:47;-3.30;99.90
71754;DHT22;59593;51.716;7.016;2022-12-18T09:46:20;-3.20;99.90
71754;DHT22;59593;51.716;7.016;2022-12-18T09:48:52;-3.00;99.90
71754;DHT22;59593;51.716;7.016;2022-12-18T09:51:24;-2.90;99.90
71754;DHT22;59593;51.716;7.016;2022-12-18T09:53:57;-2.90;99.90
71754;DHT22;59593;51.716;7.016;2022-12-18T09:56:28;-2.70;99.90
71754;DHT22;59593;51.716;7.016;2022-12-18T09:59:01;-2.60;99.90
71754;DHT22;59593;51.716;7.016;2022-12-18T10:01:31;-2.50;99.90
71754;DHT22;59593;51.716;7.016;2022-12-18T10:03:57;-2.30;99.90
71754;DHT22;59593;51.716;7.016;2022-12-18T10:06:52;-2.30;99.90
71754;DHT22;59593;51.716;7.016;2022-12-18T10:09:28;-2.20;99.90
71754;DHT22;59593;51.716;7.016;2022-12-18T10:17:51;-1.90;99.90
71754;DHT22;59593;51.716;7.016;2022-12-18T10:20:43;-2.00;99.90
71754;DHT22;59593;51.716;7.016;2022-12-18T10:26:24;-1.70;99.90
71754;DHT22;59593;51.716;7.016;2022-12-18T10:28:51;-1.70;99.90
71754;DHT22;59593;51.716;7.016;2022-12-18T10:31:21;-1.80;99.90
71754;DHT22;59593;51.716;7.016;2022-12-18T10:33:47;-1.90;99.90
71754;DHT22;59593;51.716;7.016;2022-12-18T10:36:13;-1.80;99.90
71754;DHT22;59593;51.716;7.016;2022-12-18T10:38:39;-1.80;99.90
71754;DHT22;59593;51.716;7.016;2022-12-18T10:44:21;-1.60;99.90
71754;DHT22;59593;51.716;7.016;2022-12-18T10:46:49;-1.50;99.90
71754;DHT22;59593;51.716;7.016;2022-12-18T10:51:49;-1.50;99.90
71754;DHT22;59593;51.716;7.016;2022-12-18T10:54:17;-1.40;99.90
71754;DHT22;59593;51.716;7.016;2022-12-18T10:56:44;-1.40;99.90
71754;DHT22;59593;51.716;7.016;2022-12-18T10:59:13;-1.20;99.90
71754;DHT22;59593;51.716;7.016;2022-12-18T11:02:22;-1.20;99.90
71754;DHT22;59593;51.716;7.016;2022-12-18T11:04:51;-1.20;99.90
71754;DHT22;59593;51.716;7.016;2022-12-18T11:07:17;-1.10;99.90
71754;DHT22;59593;51.716;7.016;2022-12-18T11:09:43;-0.90;99.90
71754;DHT22;59593;51.716;7.016;2022-12-18T11:12:17;-0.70;99.90
71754;DHT22;59593;51.716;7.016;2022-12-18T11:14:47;-0.80;99.90
71754;DHT22;59593;51.716;7.016;2022-12-18T11:17:31;-1.00;99.90
71754;DHT22;59593;51.716;7.016;2022-12-18T11:20:03;-0.90;99.90
71754;DHT22;59593;51.716;7.016;2022-12-18T11:22:31;-0.70;99.90
71754;DHT22;59593;51.716;7.016;2022-12-18T11:25:03;-0.80;99.90
71754;DHT22;59593;51.716;7.016;2022-12-18T11:27:31;-1.00;99.90
71754;DHT22;59593;51.716;7.016;2022-12-18T11:32:54;-1.10;99.90
71754;DHT22;59593;51.716;7.016;2022-12-18T11:38:24;-1.10;99.90
71754;DHT22;59593;51.716;7.016;2022-12-18T11:43:54;-1.10;99.90
71754;DHT22;59593;51.716;7.016;2022-12-18T11:46:32;-1.00;99.90
71754;DHT22;59593;51.716;7.016;2022-12-18T11:49:12;-1.10;99.90
71754;DHT22;59593;51.716;7.016;2022-12-18T11:51:55;-0.90;99.90
71754;DHT22;59593;51.716;7.016;2022-12-18T11:54:23;-0.90;99.90
71754;DHT22;59593;51.716;7.016;2022-12-18T12:13:41;-0.60;99.90
71754;DHT22;59593;51.716;7.016;2022-12-18T12:16:22;-0.50;99.90
71754;DHT22;59593;51.716;7.016;2022-12-18T12:21:55;-0.60;99.90
71754;DHT22;59593;51.716;7.016;2022-12-18T12:30:04;-0.50;99.90
71754;DHT22;59593;51.716;7.016;2022-12-18T12:38:12;-0.40;99.90
71754;DHT22;59593;51.716;7.016;2022-12-18T12:40:45;-0.50;99.90
71754;DHT22;59593;51.716;7.016;2022-12-18T12:43:44;-0.50;99.90
71754;DHT22;59593;51.716;7.016;2022-12-18T12:46:14;-0.50;99.90
71754;DHT22;59593;51.716;7.016;2022-12-18T12:48:56;-0.40;99.90
71754;DHT22;59593;51.716;7.016;2022-12-18T12:51:32;-0.50;99.90
71754;DHT22;59593;51.716;7.016;2022-12-18T12:54:00;-0.40;99.90
71754;DHT22;59593;51.716;7.016;2022-12-18T12:59:13;-0.50;99.90
71754;DHT22;59593;51.716;7.016;2022-12-18T13:01:52;-0.50;99.90
71754;DHT22;59593;51.716;7.016;2022-12-18T13:04:40;-0.40;99.90
71754;DHT22;59593;51.716;7.016;2022-12-18T13:15:34;-0.40;99.90
71754;DHT22;59593;51.716;7.016;2022-12-18T13:20:34;-0.50;99.90
71754;DHT22;59593;51.716;7.016;2022-12-18T13:23:00;-0.50;99.90
71754;DHT22;59593;51.716;7.016;2022-12-18T13:25:28;-0.50;99.90
71754;DHT22;59593;51.716;7.016;2022-12-18T13:41:01;-0.40;99.90
71754;DHT22;59593;51.716;7.016;2022-12-18T13:44:23;-0.50;99.90
71754;DHT22;59593;51.716;7.016;2022-12-18T13:46:51;-0.50;99.90
71754;DHT22;59593;51.716;7.016;2022-12-18T13:49:40;-0.50;99.90
71754;DHT22;59593;51.716;7.016;2022-12-18T13:52:19;-0.40;99.90
71754;DHT22;59593;51.716;7.016;2022-12-18T13:54:56;-0.40;99.90
71754;DHT22;59593;51.716;7.016;2022-12-18T13:57:35;-0.30;99.90
71754;DHT22;59593;51.716;7.016;2022-12-18T14:02:47;-0.40;99.90
71754;DHT22;59593;51.716;7.016;2022-12-18T14:05:34;-0.40;99.90
71754;DHT22;59593;51.716;7.016;2022-12-18T14:08:12;-0.40;99.90
71754;DHT22;59593;51.716;7.016;2022-12-18T14:10:46;-0.40;99.90
71754;DHT22;59593;51.716;7.016;2022-12-18T14:13:29;-0.40;99.90
71754;DHT22;59593;51.716;7.016;2022-12-18T14:15:56;-0.40;99.90
71754;DHT22;59593;51.716;7.016;2022-12-18T14:18:32;-0.50;99.90
71754;DHT22;59593;51.716;7.016;2022-12-18T14:21:00;-0.50;99.90
71754;DHT22;59593;51.716;7.016;2022-12-18T14:23:40;-0.40;99.90
71754;DHT22;59593;51.716;7.016;2022-12-18T14:26:25;-0.40;99.90
71754;DHT22;59593;51.716;7.016;2022-12-18T14:28:54;-0.40;99.90
71754;DHT22;59593;51.716;7.016;2022-12-18T14:31:25;-0.30;99.90
71754;DHT22;59593;51.716;7.016;2022-12-18T14:33:52;-0.30;99.90
71754;DHT22;59593;51.716;7.016;2022-12-18T14:36:24;-0.20;99.90
71754;DHT22;59593;51.716;7.016;2022-12-18T14:38:54;-0.30;99.90
71754;DHT22;59593;51.716;7.016;2022-12-18T14:41:21;-0.30;99.90
71754;DHT22;59593;51.716;7.016;2022-12-18T14:43:49;-0.40;99.90
71754;DHT22;59593;51.716;7.016;2022-12-18T14:46:36;-0.30;99.90
71754;DHT22;59593;51.716;7.016;2022-12-18T14:49:29;-0.30;99.90
71754;DHT22;59593;51.716;7.016;2022-12-18T14:51:57;-0.30;99.90
71754;DHT22;59593;51.716;7.016;2022-12-18T14:54:24;-0.20;99.90
71754;DHT22;59593;51.716;7.016;2022-12-18T14:57:01;-0.30;99.90
71754;DHT22;59593;51.716;7.016;2022-12-18T14:59:28;-0.30;99.90
71754;DHT22;59593;51.716;7.016;2022-12-18T15:01:59;-0.40;99.90
71754;DHT22;59593;51.716;7.016;2022-12-18T15:09:40;-0.40;99.90
71754;DHT22;59593;51.716;7.016;2022-12-18T15:12:22;-0.40;99.90
71754;DHT22;59593;51.716;7.016;2022-12-18T15:14:49;-0.40;99.90
71754;DHT22;59593;51.716;7.016;2022-12-18T15:17:21;-0.40;99.90
71754;DHT22;59593;51.716;7.016;2022-12-18T15:19:52;-0.30;99.90
71754;DHT22;59593;51.716;7.016;2022-12-18T15:22:22;-0.30;99.90
71754;DHT22;59593;51.716;7.016;2022-12-18T15:24:49;-0.30;99.90
71754;DHT22;59593;51.716;7.016;2022-12-18T15:27:34;-0.40;99.90
71754;DHT22;59593;51.716;7.016;2022-12-18T15:32:39;-0.40;99.90
71754;DHT22;59593;51.716;7.016;2022-12-18T15:35:22;-0.40;99.90
71754;DHT22;59593;51.716;7.016;2022-12-18T15:37:50;-0.40;99.90
71754;DHT22;59593;51.716;7.016;2022-12-18T15:40:20;-0.40;99.90
71754;DHT22;59593;51.716;7.016;2022-12-18T15:42:47;-0.40;99.90
71754;DHT22;59593;51.716;7.016;2022-12-18T15:45:32;-0.40;99.90
71754;DHT22;59593;51.716;7.016;2022-12-18T15:47:58;-0.50;99.90
71754;DHT22;59593;51.716;7.016;2022-12-18T15:50:24;-0.50;99.90
71754;DHT22;59593;51.716;7.016;2022-12-18T15:52:52;-0.40;99.90
71754;DHT22;59593;51.716;7.016;2022-12-18T15:55:22;-0.50;99.90
71754;DHT22;59593;51.716;7.016;2022-12-18T15:58:08;-0.40;99.90
71754;DHT22;59593;51.716;7.016;2022-12-18T16:00:36;-0.40;99.90
71754;DHT22;59593;51.716;7.016;2022-12-18T16:03:03;-0.50;99.90
71754;DHT22;59593;51.716;7.016;2022-12-18T16:05:29;-0.40;99.90
71754;DHT22;59593;51.716;7.016;2022-12-18T16:07:55;-0.40;99.90
71754;DHT22;59593;51.716;7.016;2022-12-18T16:10:21;-0.40;99.90
71754;DHT22;59593;51.716;7.016;2022-12-18T16:12:47;-0.40;99.90
71754;DHT22;59593;51.716;7.016;2022-12-18T16:15:14;-0.40;99.90
71754;DHT22;59593;51.716;7.016;2022-12-18T16:17:44;-0.40;99.90
71754;DHT22;59593;51.716;7.016;2022-12-18T16:20:14;-0.30;99.90
71754;DHT22;59593;51.716;7.016;2022-12-18T16:22:42;-0.40;99.90
71754;DHT22;59593;51.716;7.016;2022-12-18T16:25:23;-0.50;99.90
71754;DHT22;59593;51.716;7.016;2022-12-18T16:27:49;-0.40;99.90
71754;DHT22;59593;51.716;7.016;2022-12-18T16:30:20;-0.40;99.90
71754;DHT22;59593;51.716;7.016;2022-12-18T16:32:46;-0.40;99.90
71754;DHT22;59593;51.716;7.016;2022-12-18T16:35:14;-0.30;99.90
71754;DHT22;59593;51.716;7.016;2022-12-18T16:37:40;-0.30;99.90
71754;DHT22;59593;51.716;7.016;2022-12-18T16:40:08;-0.40;99.90
71754;DHT22;59593;51.716;7.016;2022-12-18T16:42:45;-0.40;99.90
71754;DHT22;59593;51.716;7.016;2022-12-18T16:45:13;-0.30;99.90
71754;DHT22;59593;51.716;7.016;2022-12-18T16:47:40;-0.30;99.90
71754;DHT22;59593;51.716;7.016;2022-12-18T16:50:06;-0.40;99.90
71754;DHT22;59593;51.716;7.016;2022-12-18T16:52:33;-0.40;99.90
71754;DHT22;59593;51.716;7.016;2022-12-18T16:54:58;-0.40;99.90
71754;DHT22;59593;51.716;7.016;2022-12-18T16:57:24;-0.30;99.90
71754;DHT22;59593;51.716;7.016;2022-12-18T16:59:49;-0.20;99.90
71754;DHT22;59593;51.716;7.016;2022-12-18T17:02:21;-0.20;99.90
71754;DHT22;59593;51.716;7.016;2022-12-18T17:04:47;-0.10;99.90
71754;DHT22;59593;51.716;7.016;2022-12-18T17:07:13;-0.10;99.90
71754;DHT22;59593;51.716;7.016;2022-12-18T17:09:39;-0.20;99.90
71754;DHT22;59593;51.716;7.016;2022-12-18T17:12:05;-0.20;99.90
71754;DHT22;59593;51.716;7.016;2022-12-18T17:14:32;-0.10;99.90
71754;DHT22;59593;51.716;7.016;2022-12-18T17:16:58;-0.10;99.90
71754;DHT22;59593;51.716;7.016;2022-12-18T17:19:28;-0.10;99.90
71754;DHT22;59593;51.716;7.016;2022-12-18T17:21:54;-0.10;99.90
71754;DHT22;59593;51.716;7.016;2022-12-18T17:24:20;-0.10;99.90
71754;DHT22;59593;51.716;7.016;2022-12-18T17:26:46;-0.10;99.90
71754;DHT22;59593;51.716;7.016;2022-12-18T17:29:14;0.00;99.90
71754;DHT22;59593;51.716;7.016;2022-12-18T17:31:40;0.00;99.90
71754;DHT22;59593;51.716;7.016;2022-12-18T17:34:07;0.00;99.90
71754;DHT22;59593;51.716;7.016;2022-12-18T17:36:34;0.10;99.90
71754;DHT22;59593;51.716;7.016;2022-12-18T17:39:01;0.20;99.90
71754;DHT22;59593;51.716;7.016;2022-12-18T17:41:27;0.10;99.90
71754;DHT22;59593;51.716;7.016;2022-12-18T17:43:53;0.10;99.90